Time;durP1;ratioP1;P1;durP2;ratioP2;P2;SDS_P1;SDS_P2;PMS_P1;PMS_P2;Temp;Humidity;BMP_temperature;BMP_pressure;BME280_temperature;BME280_humidity;BME280_pressure;Samples;Min_cycle;Max_cycle;Signal;HPM_P1;HPM_P2
2021/12/05 00:25:32;;;;;;;5.03;2.40;;;6.20;93.90;;;;;;21065570;27;20586;-73
2021/12/05 00:45:54;;;;;;;4.80;2.10;;;6.20;94.10;;;;;;20983007;28;20212;-74
2021/12/05 01:06:48;;;;;;;3.77;1.83;;;6.10;93.90;;;;;;20981276;28;20204;-72
2021/12/05 01:16:43;;;;;;;4.77;1.80;;;6.00;93.80;;;;;;20980166;28;20283;-77
2021/12/05 01:27:13;;;;;;;4.97;1.73;;;6.10;93.20;;;;;;20978982;28;20207;-73
2021/12/05 01:48:00;;;;;;;6.03;1.80;;;6.20;92.70;;;;;;20923449;28;20200;-74
2021/12/05 02:49:10;;;;;;;8.40;2.27;;;6.20;92.80;;;;;;20918208;28;20221;-74
2021/12/05 02:59:23;;;;;;;4.73;1.90;;;6.20;93.10;;;;;;20917994;28;20280;-73
2021/12/05 03:09:25;;;;;;;5.37;1.93;;;6.10;93.30;;;;;;20916865;28;20204;-72
2021/12/05 03:27:11;;;;;;;10.33;2.07;;;6.00;93.30;;;;;;20984748;28;20579;-73
2021/12/05 03:37:13;;;;;;;4.00;2.17;;;6.00;93.60;;;;;;20983840;28;20213;-72
2021/12/05 03:47:15;;;;;;;5.00;1.73;;;6.00;93.60;;;;;;20981998;28;20712;-73
2021/12/05 03:57:17;;;;;;;3.73;1.67;;;5.90;93.60;;;;;;20982060;28;20204;-72
2021/12/05 04:07:18;;;;;;;4.17;1.87;;;5.80;93.70;;;;;;20981346;28;20216;-72
2021/12/05 04:17:21;;;;;;;5.77;2.40;;;5.90;94.10;;;;;;20980488;28;20538;-72
2021/12/05 04:27:23;;;;;;;6.00;1.80;;;5.80;93.80;;;;;;20970247;28;20266;-73
2021/12/05 04:37:25;;;;;;;5.00;1.83;;;5.70;93.70;;;;;;20846106;28;20209;-74
2021/12/05 04:47:27;;;;;;;6.43;2.03;;;5.70;94.00;;;;;;20841059;28;20210;-72
2021/12/05 04:57:29;;;;;;;5.00;2.07;;;5.70;93.80;;;;;;20840094;28;20616;-71
2021/12/05 05:07:31;;;;;;;4.63;1.90;;;5.60;93.90;;;;;;20839366;28;20209;-71
2021/12/05 05:17:34;;;;;;;9.47;2.10;;;5.60;94.20;;;;;;20838658;28;20239;-72
2021/12/05 05:48:15;;;;;;;7.20;2.60;;;5.50;94.30;;;;;;20850058;28;20253;-72
2021/12/05 05:58:21;;;;;;;12.80;2.50;;;5.50;94.00;;;;;;20917902;28;20239;-73
2021/12/05 06:08:26;;;;;;;5.17;2.40;;;5.40;94.10;;;;;;20917010;28;20211;-75
2021/12/05 06:18:29;;;;;;;9.67;2.07;;;5.40;94.00;;;;;;20914203;28;20239;-74
2021/12/05 06:28:39;;;;;;;4.93;2.10;;;5.40;94.00;;;;;;20903292;28;20209;-76
2021/12/05 06:38:58;;;;;;;9.27;2.40;;;5.40;94.30;;;;;;20828497;28;20229;-76
2021/12/05 06:49:00;;;;;;;8.40;2.43;;;5.50;94.00;;;;;;20865481;28;20207;-77
2021/12/05 06:59:01;;;;;;;6.03;2.00;;;5.50;94.30;;;;;;20913426;28;20258;-74
2021/12/05 07:09:08;;;;;;;9.40;1.93;;;5.40;94.10;;;;;;20912647;28;20201;-73
2021/12/05 07:50:13;;;;;;;5.03;2.20;;;5.00;94.80;;;;;;20911782;28;20717;-73
2021/12/05 08:00:29;;;;;;;4.53;2.30;;;5.10;94.40;;;;;;20910245;28;20233;-72
2021/12/05 08:20:51;;;;;;;10.33;2.20;;;5.30;94.70;;;;;;20922685;28;20297;-72
2021/12/05 08:41:56;;;;;;;4.43;2.03;;;5.50;95.10;;;;;;20811253;28;20267;-73
2021/12/05 10:15:47;;;;;;;2.90;1.50;;;7.40;93.30;;;;;;20833977;28;20269;-75
2021/12/05 10:26:20;;;;;;;6.57;2.70;;;7.30;93.30;;;;;;20829791;28;20279;-75
2021/12/05 10:36:26;;;;;;;2.83;1.60;;;7.30;92.70;;;;;;20885067;28;20662;-74
2021/12/05 10:46:29;;;;;;;4.13;1.87;;;7.40;92.90;;;;;;20914312;28;20251;-76
2021/12/05 10:56:51;;;;;;;1.53;1.43;;;7.50;92.70;;;;;;20912986;28;20236;-73
2021/12/05 11:07:11;;;;;;;3.30;1.70;;;7.60;92.20;;;;;;20912878;28;20235;-74
2021/12/05 11:17:16;;;;;;;2.83;1.60;;;7.80;92.10;;;;;;20912396;28;20547;-68
2021/12/05 11:27:26;;;;;;;7.63;1.70;;;7.90;92.00;;;;;;20911976;28;20237;-75
2021/12/05 11:37:27;;;;;;;2.50;1.50;;;7.70;91.40;;;;;;20910919;28;20247;-67
2021/12/05 11:47:37;;;;;;;4.17;1.50;;;7.80;91.30;;;;;;20925044;28;20285;-66
2021/12/05 11:57:39;;;;;;;4.60;2.07;;;7.80;91.10;;;;;;20927512;28;20559;-66
2021/12/05 12:07:48;;;;;;;2.60;1.40;;;8.50;90.80;;;;;;20926459;28;20285;-74
2021/12/05 12:17:51;;;;;;;1.93;1.23;;;8.60;88.20;;;;;;20925189;28;20281;-66
2021/12/05 12:27:53;;;;;;;4.83;1.47;;;8.50;88.60;;;;;;20925004;28;20280;-72
2021/12/05 12:38:02;;;;;;;3.73;1.20;;;8.40;86.90;;;;;;20850512;28;20269;-70
2021/12/05 12:48:11;;;;;;;3.70;1.60;;;8.20;86.20;;;;;;20840213;28;20266;-72
2021/12/05 12:58:55;;;;;;;2.73;1.10;;;8.20;86.60;;;;;;20839826;28;20238;-78
2021/12/05 13:19:30;;;;;;;7.47;3.30;;;8.20;86.40;;;;;;20838007;28;20255;-70
2021/12/05 13:29:48;;;;;;;5.30;1.70;;;8.20;86.50;;;;;;20837768;28;20219;-73
2021/12/05 13:40:12;;;;;;;2.87;1.93;;;8.20;87.40;;;;;;20836712;28;20756;-77
2021/12/05 13:50:22;;;;;;;4.40;2.00;;;8.20;87.80;;;;;;20832649;28;20210;-76
2021/12/05 14:00:53;;;;;;;5.33;2.23;;;8.30;88.00;;;;;;20835434;28;20274;-77
2021/12/05 14:10:55;;;;;;;2.50;1.50;;;8.30;88.40;;;;;;20833523;28;20216;-76
2021/12/05 14:21:14;;;;;;;6.03;2.73;;;8.30;88.40;;;;;;20833513;28;20243;-76
2021/12/05 14:31:23;;;;;;;8.10;3.00;;;8.10;88.30;;;;;;20832786;28;20610;-76
2021/12/05 14:41:32;;;;;;;6.60;2.60;;;8.10;89.00;;;;;;20829681;28;20242;-77
2021/12/05 14:51:36;;;;;;;4.78;3.30;;;8.00;89.60;;;;;;20826134;28;20825;-76
2021/12/05 15:01:41;;;;;;;5.93;2.77;;;8.60;90.20;;;;;;20830756;28;20283;-76
2021/12/05 15:12:16;;;;;;;6.17;3.10;;;8.00;90.30;;;;;;20830695;28;20262;-76
2021/12/05 15:22:19;;;;;;;3.37;2.17;;;7.50;90.70;;;;;;20825280;28;20243;-76
2021/12/05 15:32:27;;;;;;;10.17;4.20;;;7.50;90.70;;;;;;20829423;28;20214;-76
2021/12/05 15:42:31;;;;;;;6.17;4.50;;;7.50;91.30;;;;;;20829291;28;20236;-75
2021/12/05 15:52:44;;;;;;;9.83;5.83;;;7.40;91.70;;;;;;20828440;28;20206;-75
2021/12/05 16:02:49;;;;;;;10.53;5.77;;;7.40;92.60;;;;;;20905618;28;20291;-75
2021/12/05 16:12:53;;;;;;;5.47;3.30;;;7.10;92.60;;;;;;20909462;28;20544;-73
2021/12/05 16:22:59;;;;;;;6.03;2.43;;;7.10;92.80;;;;;;20909676;28;20646;-74
2021/12/05 16:33:03;;;;;;;6.37;3.63;;;6.80;92.80;;;;;;20903186;28;20213;-72
2021/12/05 16:43:09;;;;;;;4.87;2.40;;;6.80;93.00;;;;;;20846591;28;20280;-71
2021/12/05 16:53:13;;;;;;;2.60;1.90;;;6.60;93.20;;;;;;20922108;28;20206;-72
2021/12/05 17:03:23;;;;;;;4.47;2.00;;;6.60;93.50;;;;;;20922345;28;20230;-72
2021/12/05 17:13:35;;;;;;;3.40;2.00;;;6.50;93.50;;;;;;20922155;28;20303;-73
2021/12/05 17:23:41;;;;;;;5.70;2.07;;;6.60;93.60;;;;;;20919309;28;20607;-73
2021/12/05 17:33:48;;;;;;;11.63;2.80;;;6.40;93.70;;;;;;20919921;28;20721;-73
2021/12/05 17:43:49;;;;;;;10.63;4.17;;;6.40;93.80;;;;;;20919360;28;20283;-77
2021/12/05 17:53:54;;;;;;;9.43;5.53;;;6.40;94.30;;;;;;20918224;28;20255;-73
2021/12/05 18:03:57;;;;;;;9.87;4.50;;;6.30;94.70;;;;;;20917945;28;20231;-76
2021/12/05 18:13:59;;;;;;;8.53;5.00;;;6.30;95.10;;;;;;20918156;28;20207;-77
2021/12/05 18:24:01;;;;;;;16.73;9.33;;;6.20;95.00;;;;;;20914928;28;20714;-71
2021/12/05 18:34:13;;;;;;;8.83;4.40;;;5.90;95.20;;;;;;20895690;28;20209;-77
2021/12/05 18:44:18;;;;;;;20.90;10.20;;;5.90;95.30;;;;;;20829394;28;20712;-72
2021/12/05 18:54:21;;;;;;;52.53;27.27;;;5.70;95.40;;;;;;20828780;28;20211;-71
2021/12/05 19:04:29;;;;;;;12.43;6.43;;;5.40;95.70;;;;;;20830833;28;20292;-72
2021/12/05 19:14:41;;;;;;;13.77;6.73;;;5.40;96.10;;;;;;20830910;28;20213;-72
2021/12/05 19:24:44;;;;;;;17.63;10.20;;;5.30;95.90;;;;;;20846557;28;20242;-67
2021/12/05 19:34:46;;;;;;;24.93;13.47;;;5.10;96.00;;;;;;20912006;28;20253;-79
2021/12/05 19:44:48;;;;;;;14.30;8.50;;;5.10;96.30;;;;;;20840408;28;20632;-75
2021/12/05 19:54:50;;;;;;;26.70;14.07;;;5.00;96.10;;;;;;20890079;28;20258;-72
2021/12/05 20:04:53;;;;;;;21.03;11.17;;;4.90;96.20;;;;;;20918468;28;20235;-73
2021/12/05 20:14:55;;;;;;;18.67;10.87;;;4.70;96.20;;;;;;20907945;28;20255;-74
2021/12/05 20:24:57;;;;;;;20.90;12.83;;;4.70;96.30;;;;;;20842838;28;20266;-70
2021/12/05 20:34:58;;;;;;;29.93;16.47;;;4.40;95.90;;;;;;20842207;28;20608;-72
2021/12/05 20:45:00;;;;;;;23.73;15.23;;;4.40;96.20;;;;;;20841721;28;20237;-69
2021/12/05 20:55:05;;;;;;;30.53;17.67;;;4.30;96.20;;;;;;20840837;28;20676;-70
2021/12/05 21:05:09;;;;;;;26.03;16.63;;;4.40;96.30;;;;;;20836119;28;20453;-72
2021/12/05 21:15:12;;;;;;;21.53;12.30;;;4.60;96.20;;;;;;20865619;28;20284;-69
2021/12/05 21:25:15;;;;;;;28.70;13.57;;;4.50;95.90;;;;;;20923971;28;20240;-70
2021/12/05 21:35:19;;;;;;;17.60;9.27;;;4.50;96.20;;;;;;20923604;28;20396;-68
2021/12/05 21:45:21;;;;;;;21.63;12.07;;;4.60;96.40;;;;;;20919521;28;20643;-69
2021/12/05 21:55:24;;;;;;;21.27;12.03;;;4.60;96.20;;;;;;20918332;28;20204;-70
2021/12/05 22:05:28;;;;;;;16.93;10.27;;;4.70;96.30;;;;;;20917578;28;20727;-70
2021/12/05 22:15:34;;;;;;;18.03;11.23;;;4.70;96.20;;;;;;20916845;28;20671;-69
2021/12/05 22:25:36;;;;;;;38.23;12.43;;;4.60;96.30;;;;;;20912470;28;20243;-76
2021/12/05 22:35:38;;;;;;;42.70;12.40;;;4.60;96.60;;;;;;20915410;28;20208;-72
2021/12/05 22:45:40;;;;;;;39.83;11.20;;;4.60;96.80;;;;;;20914838;28;20571;-72
2021/12/05 22:55:41;;;;;;;35.53;9.63;;;4.60;97.10;;;;;;20914526;28;20208;-71
2021/12/05 23:05:43;;;;;;;35.20;9.47;;;4.30;97.30;;;;;;20913546;28;20637;-71
2021/12/05 23:15:45;;;;;;;51.80;9.77;;;4.10;97.80;;;;;;20912880;28;20667;-71
2021/12/05 23:25:49;;;;;;;23.57;8.93;;;4.10;98.10;;;;;;20912610;28;20301;-72
2021/12/05 23:35:51;;;;;;;67.80;9.97;;;4.10;97.90;;;;;;20915324;28;20785;-71
2021/12/05 23:45:54;;;;;;;43.50;9.53;;;4.00;98.00;;;;;;20928647;28;20288;-72
2021/12/05 23:55:57;;;;;;;85.33;10.33;;;4.10;98.20;;;;;;20928647;28;20663;-71
